createdAt,value
2023-03-20T00:01:57.872Z,76.28
2023-03-20T00:04:25.953Z,75.66
2023-03-20T00:06:54.698Z,75.99
2023-03-20T00:09:22.360Z,75.57
2023-03-20T00:11:51.611Z,77.96
2023-03-20T00:14:22.449Z,76.88
2023-03-20T00:16:51.286Z,77.26
2023-03-20T00:19:20.717Z,76.48
2023-03-20T00:21:48.578Z,76.29
2023-03-20T00:24:18.149Z,76.05
2023-03-20T00:26:47.342Z,76.43
2023-03-20T00:29:21.586Z,75.88
2023-03-20T00:31:49.438Z,75.97
2023-03-20T00:34:19.301Z,76.37
2023-03-20T00:36:47.406Z,76.06
2023-03-20T00:39:14.915Z,76.38
2023-03-20T00:41:49.962Z,77.54
2023-03-20T00:44:24.825Z,77.92
2023-03-20T00:46:55.455Z,77.80
2023-03-20T00:49:26.274Z,77.78
2023-03-20T00:51:53.692Z,78.46
2023-03-20T00:54:21.332Z,78.64
2023-03-20T00:56:56.501Z,78.98
2023-03-20T00:59:27.792Z,78.86
2023-03-20T01:01:56.522Z,78.82
2023-03-20T01:04:24.011Z,78.19
2023-03-20T01:06:52.538Z,79.01
2023-03-20T01:09:19.986Z,80.00
2023-03-20T01:11:47.660Z,79.61
2023-03-20T01:14:17.940Z,79.36
2023-03-20T01:16:45.540Z,79.86
2023-03-20T01:19:14.575Z,79.02
2023-03-20T01:21:42.285Z,79.41
2023-03-20T01:24:10.097Z,78.22
2023-03-20T01:26:40.210Z,80.54
2023-03-20T01:29:19.992Z,80.47
2023-03-20T01:31:47.606Z,79.34
2023-03-20T01:34:16.337Z,80.56
2023-03-20T01:36:47.418Z,81.08
2023-03-20T01:39:15.001Z,79.96
2023-03-20T01:41:42.590Z,80.25
2023-03-20T01:44:22.196Z,80.35
2023-03-20T01:46:50.902Z,80.04
2023-03-20T01:49:55.631Z,80.17
2023-03-20T01:52:23.082Z,79.92
2023-03-20T01:54:50.854Z,80.17
2023-03-20T01:57:21.505Z,80.12
2023-03-20T01:59:53.152Z,79.27
2023-03-20T02:02:23.607Z,79.35
2023-03-20T02:04:56.330Z,79.29
2023-03-20T02:07:24.634Z,79.41
2023-03-20T02:09:52.612Z,79.83
2023-03-20T02:12:21.340Z,80.20
2023-03-20T02:14:52.089Z,79.41
2023-03-20T02:17:20.073Z,80.13
2023-03-20T02:19:59.298Z,80.57
2023-03-20T02:23:12.922Z,79.91
2023-03-20T02:26:16.223Z,79.61
2023-03-20T02:29:38.030Z,80.31
2023-03-20T02:32:50.708Z,79.75
2023-03-20T02:35:33.808Z,79.09
2023-03-20T02:38:16.641Z,80.55
2023-03-20T02:40:48.935Z,80.35
2023-03-20T02:43:25.260Z,79.99
2023-03-20T02:45:56.977Z,81.34
2023-03-20T02:48:40.130Z,80.01
2023-03-20T02:51:17.015Z,81.02
2023-03-20T02:53:54.193Z,80.88
2023-03-20T02:56:30.959Z,79.85
2023-03-20T02:59:06.600Z,80.08
2023-03-20T03:01:39.076Z,80.04
2023-03-20T03:04:11.157Z,79.39
2023-03-20T03:06:41.702Z,79.35
2023-03-20T03:09:17.227Z,80.33
2023-03-20T03:11:50.471Z,80.53
2023-03-20T03:14:23.006Z,80.59
2023-03-20T03:16:53.187Z,80.19
2023-03-20T03:19:24.997Z,80.92
2023-03-20T03:21:52.925Z,80.38
2023-03-20T03:24:39.835Z,80.07
2023-03-20T03:27:14.125Z,80.89
2023-03-20T03:29:42.866Z,80.75
2023-03-20T03:32:24.436Z,82.15
2023-03-20T03:34:51.984Z,81.68
2023-03-20T03:37:28.026Z,82.26
2023-03-20T03:40:06.355Z,81.04
2023-03-20T03:42:38.547Z,80.63
2023-03-20T03:45:12.822Z,81.70
2023-03-20T03:47:46.172Z,82.02
2023-03-20T03:50:17.900Z,81.27
2023-03-20T03:52:47.511Z,82.29
2023-03-20T03:55:22.918Z,80.82
2023-03-20T03:57:54.833Z,81.13
2023-03-20T04:00:26.079Z,80.60
2023-03-20T04:02:55.976Z,80.48
2023-03-20T04:05:25.790Z,80.18
2023-03-20T04:07:56.277Z,81.83
2023-03-20T04:10:25.521Z,81.49
2023-03-20T04:12:52.944Z,82.26
2023-03-20T04:15:21.686Z,84.14
2023-03-20T04:17:49.184Z,84.12
2023-03-20T04:20:17.396Z,84.33
2023-03-20T04:22:44.813Z,83.93
2023-03-20T04:25:18.308Z,82.52
2023-03-20T04:27:47.141Z,83.60
2023-03-20T04:30:15.269Z,82.66
2023-03-20T04:32:42.732Z,82.99
2023-03-20T04:35:10.708Z,82.68
2023-03-20T04:37:38.175Z,82.70
2023-03-20T04:40:06.585Z,81.96
2023-03-20T04:42:34.001Z,82.26
2023-03-20T04:45:02.844Z,82.51
2023-03-20T04:47:30.230Z,82.17
2023-03-20T04:49:57.782Z,82.04
2023-03-20T04:52:25.600Z,83.28
2023-03-20T04:54:53.053Z,83.25
2023-03-20T04:57:20.616Z,82.76
2023-03-20T04:59:48.085Z,83.64
2023-03-20T05:02:17.940Z,82.82
2023-03-20T05:04:45.449Z,82.58
2023-03-20T05:07:12.895Z,83.27
2023-03-20T05:09:40.345Z,82.96
2023-03-20T05:12:08.489Z,84.37
2023-03-20T05:14:36.019Z,84.11
2023-03-20T05:17:03.521Z,83.94
2023-03-20T05:19:32.319Z,83.97
2023-03-20T05:21:59.735Z,83.01
2023-03-20T05:24:29.012Z,84.33
2023-03-20T05:26:56.450Z,89.30
2023-03-20T05:29:24.507Z,88.44
2023-03-20T05:31:51.918Z,85.28
2023-03-20T05:34:19.320Z,81.72
2023-03-20T05:36:48.126Z,81.56
2023-03-20T05:39:15.724Z,82.55
2023-03-20T05:41:45.749Z,81.75
2023-03-20T05:44:13.366Z,83.26
2023-03-20T05:46:41.021Z,83.01
2023-03-20T05:49:08.516Z,84.20
2023-03-20T05:51:36.078Z,85.60
2023-03-20T05:54:05.178Z,84.40
2023-03-20T05:56:32.638Z,85.33
2023-03-20T05:59:00.118Z,88.99
2023-03-20T06:01:27.523Z,88.98
2023-03-20T06:03:54.979Z,90.73
2023-03-20T06:06:22.383Z,88.49
2023-03-20T06:08:49.811Z,93.81
2023-03-20T06:11:18.676Z,97.00
2023-03-20T06:13:46.216Z,95.90
2023-03-20T06:16:13.710Z,96.51
2023-03-20T06:18:41.214Z,98.68
2023-03-20T06:21:09.365Z,100.00
2023-03-20T06:23:36.849Z,100.00
2023-03-20T06:26:04.605Z,98.25
2023-03-20T06:28:33.358Z,100.00
2023-03-20T06:31:01.058Z,99.68
2023-03-20T06:33:28.892Z,100.00
2023-03-20T06:35:56.365Z,100.00
2023-03-20T06:38:23.790Z,100.00
2023-03-20T06:40:51.215Z,100.00
2023-03-20T06:43:19.254Z,100.00
2023-03-20T06:45:48.425Z,100.00
2023-03-20T06:48:21.799Z,100.00
2023-03-20T06:50:49.584Z,100.00
2023-03-20T06:53:17.291Z,100.00
2023-03-20T06:55:48.240Z,100.00
2023-03-20T06:58:15.843Z,100.00
2023-03-20T07:00:43.540Z,100.00
2023-03-20T07:03:12.574Z,100.00
2023-03-20T07:05:40.288Z,100.00
2023-03-20T07:08:08.317Z,100.00
2023-03-20T07:10:36.083Z,100.00
2023-03-20T07:13:03.556Z,100.00
2023-03-20T07:15:31.094Z,100.00
2023-03-20T07:17:58.490Z,100.00
2023-03-20T07:20:27.574Z,100.00
2023-03-20T07:22:55.425Z,100.00
2023-03-20T07:25:35.372Z,100.00
2023-03-20T07:28:07.012Z,100.00
2023-03-20T07:30:34.477Z,97.24
2023-03-20T07:33:01.890Z,96.82
2023-03-20T07:35:30.942Z,96.91
2023-03-20T07:37:58.436Z,98.28
2023-03-20T07:40:25.914Z,99.20
2023-03-20T07:42:53.363Z,96.51
2023-03-20T07:45:20.795Z,95.18
2023-03-20T07:47:48.715Z,92.27
2023-03-20T07:50:17.122Z,94.92
2023-03-20T07:52:48.497Z,94.97
2023-03-20T07:55:18.477Z,94.74
2023-03-20T07:57:46.171Z,94.41
2023-03-20T08:00:15.196Z,97.03
2023-03-20T08:02:42.794Z,92.95
2023-03-20T08:05:10.870Z,91.11
2023-03-20T08:07:38.400Z,90.75
2023-03-20T08:10:08.149Z,92.92
2023-03-20T08:12:35.717Z,90.09
2023-03-20T08:15:03.211Z,92.51
2023-03-20T08:17:30.739Z,93.75
2023-03-20T08:19:58.264Z,92.14
2023-03-20T08:22:25.936Z,95.41
2023-03-20T08:24:53.546Z,97.53
2023-03-20T08:27:22.364Z,89.43
2023-03-20T08:29:49.760Z,84.31
2023-03-20T08:32:17.160Z,81.19
2023-03-20T08:34:44.683Z,84.90
2023-03-20T08:37:12.397Z,80.93
2023-03-20T08:39:40.170Z,79.89
2023-03-20T08:42:08.390Z,81.36
2023-03-20T08:44:37.164Z,76.03
2023-03-20T08:47:05.504Z,78.00
2023-03-20T08:49:32.942Z,78.80
2023-03-20T08:52:00.619Z,79.12
2023-03-20T08:54:28.202Z,77.47
2023-03-20T08:56:55.724Z,74.82
2023-03-20T08:59:23.182Z,76.48
2023-03-20T09:01:51.980Z,75.41
2023-03-20T09:04:19.862Z,77.86
2023-03-20T09:06:47.676Z,79.38
2023-03-20T09:09:16.230Z,75.10
2023-03-20T09:11:43.760Z,75.66
2023-03-20T09:14:11.549Z,76.50
2023-03-20T09:16:39.328Z,75.36
2023-03-20T09:19:08.075Z,74.35
2023-03-20T09:21:35.502Z,76.24
2023-03-20T09:24:03.364Z,77.14
2023-03-20T09:26:31.001Z,75.94
2023-03-20T09:28:58.456Z,74.88
2023-03-20T09:31:25.964Z,74.12
2023-03-20T09:33:53.535Z,75.18
2023-03-20T09:36:22.270Z,73.20
2023-03-20T09:38:49.748Z,73.09
2023-03-20T09:41:21.621Z,72.48
2023-03-20T09:44:06.208Z,72.14
2023-03-20T09:46:49.684Z,71.76
2023-03-20T09:49:28.114Z,73.46
2023-03-20T09:51:59.675Z,74.97
2023-03-20T09:54:32.391Z,75.26
2023-03-20T09:57:04.346Z,75.57
2023-03-20T09:59:35.493Z,77.10
2023-03-20T10:02:09.076Z,77.27
2023-03-20T10:04:37.859Z,75.78
2023-03-20T10:07:06.975Z,75.31
2023-03-20T10:09:34.694Z,75.43
2023-03-20T10:12:18.184Z,73.28
2023-03-20T10:14:58.049Z,76.15
2023-03-20T10:17:39.528Z,73.36
2023-03-20T10:20:14.536Z,74.73
2023-03-20T10:22:48.219Z,73.20
2023-03-20T10:25:24.569Z,72.85
2023-03-20T10:27:57.057Z,76.10
2023-03-20T10:30:34.740Z,80.09
2023-03-20T10:33:16.833Z,78.50
2023-03-20T10:35:48.782Z,77.12
2023-03-20T10:38:33.261Z,75.49
2023-03-20T10:41:00.774Z,76.62
2023-03-20T10:43:32.916Z,76.73
2023-03-20T10:46:05.346Z,74.69
2023-03-20T10:48:38.112Z,71.63
2023-03-20T10:51:07.539Z,72.07
2023-03-20T10:53:42.867Z,71.27
2023-03-20T10:56:17.031Z,70.93
2023-03-20T10:58:48.760Z,73.11
2023-03-20T11:01:16.559Z,73.70
2023-03-20T11:03:44.142Z,71.44
2023-03-20T11:06:20.115Z,70.01
2023-03-20T11:08:51.995Z,72.38
2023-03-20T11:11:24.617Z,72.45
2023-03-20T11:13:52.038Z,71.67
2023-03-20T11:16:23.365Z,71.05
2023-03-20T11:18:53.884Z,70.21
2023-03-20T11:21:24.204Z,67.84
2023-03-20T11:23:53.910Z,67.34
2023-03-20T11:26:33.488Z,68.27
2023-03-20T11:29:01.619Z,70.95
2023-03-20T11:31:35.321Z,70.97
2023-03-20T11:34:12.260Z,68.41
2023-03-20T11:36:41.312Z,68.91
2023-03-20T11:39:14.906Z,71.47
2023-03-20T11:41:47.451Z,72.83
2023-03-20T11:44:28.271Z,69.47
2023-03-20T11:46:57.737Z,70.61
2023-03-20T11:49:27.696Z,68.36
2023-03-20T11:51:58.572Z,68.51
2023-03-20T11:54:28.733Z,69.01
2023-03-20T11:56:58.012Z,68.70
2023-03-20T11:59:30.670Z,69.31
2023-03-20T12:01:59.205Z,69.06
2023-03-20T12:04:30.606Z,70.34
2023-03-20T12:07:02.350Z,70.12
2023-03-20T12:09:43.413Z,69.92
2023-03-20T12:12:20.287Z,69.41
2023-03-20T12:14:58.040Z,71.78
2023-03-20T12:17:43.750Z,70.73
2023-03-20T12:20:27.014Z,71.50
2023-03-20T12:23:00.962Z,71.21
2023-03-20T12:25:36.369Z,68.31
2023-03-20T12:28:06.633Z,67.11
2023-03-20T12:30:49.832Z,67.70
2023-03-20T12:33:22.696Z,69.18
2023-03-20T12:35:54.638Z,66.53
2023-03-20T12:38:28.329Z,68.93
2023-03-20T12:41:05.717Z,69.79
2023-03-20T12:43:45.355Z,69.00
2023-03-20T12:46:24.519Z,71.64
2023-03-20T12:49:06.837Z,70.81
2023-03-20T12:51:47.409Z,72.94
2023-03-20T12:54:32.024Z,72.60
2023-03-20T12:57:09.480Z,70.35
2023-03-20T12:59:51.882Z,71.04
2023-03-20T13:02:31.292Z,72.11
2023-03-20T13:05:10.277Z,72.88
2023-03-20T13:07:51.618Z,73.25
2023-03-20T13:10:22.239Z,74.13
2023-03-20T13:13:05.585Z,72.94
2023-03-20T13:15:45.830Z,72.21
2023-03-20T13:18:20.854Z,72.53
2023-03-20T13:20:52.093Z,72.56
2023-03-20T13:23:24.206Z,72.56
2023-03-20T13:26:04.428Z,72.59
2023-03-20T13:28:40.201Z,72.53
2023-03-20T13:31:21.789Z,70.63
2023-03-20T13:33:57.540Z,71.15
2023-03-20T13:36:48.298Z,71.49
2023-03-20T13:39:21.358Z,70.88
2023-03-20T13:41:50.642Z,72.48
2023-03-20T13:44:22.602Z,73.90
2023-03-20T13:46:53.553Z,73.55
2023-03-20T13:49:26.497Z,73.86
2023-03-20T13:52:00.239Z,72.73
2023-03-20T13:54:48.318Z,73.55
2023-03-20T13:57:29.110Z,74.90
2023-03-20T14:00:17.969Z,73.66
2023-03-20T14:03:03.163Z,75.57
2023-03-20T14:05:37.596Z,76.36
2023-03-20T14:08:37.795Z,74.58
2023-03-20T14:11:15.272Z,73.99
2023-03-20T14:13:48.843Z,74.90
2023-03-20T14:16:20.786Z,73.86
2023-03-20T14:18:50.039Z,72.99
2023-03-20T14:21:21.681Z,71.54
2023-03-20T14:23:51.447Z,72.91
2023-03-20T14:26:22.857Z,74.06
2023-03-20T14:28:56.079Z,72.41
2023-03-20T14:31:30.496Z,74.52
2023-03-20T14:34:01.500Z,74.96
2023-03-20T14:36:41.482Z,74.18
2023-03-20T14:39:20.848Z,77.35
2023-03-20T14:42:01.577Z,77.26
2023-03-20T14:44:39.913Z,76.15
2023-03-20T14:47:23.411Z,77.67
2023-03-20T14:49:54.447Z,76.13
2023-03-20T14:52:46.292Z,78.03
2023-03-20T14:55:31.463Z,79.42
2023-03-20T14:58:03.272Z,76.78
2023-03-20T15:00:35.845Z,74.46
2023-03-20T15:03:09.960Z,76.93
2023-03-20T15:05:39.780Z,77.47
2023-03-20T15:08:11.335Z,76.24
2023-03-20T15:10:46.440Z,76.20
2023-03-20T15:13:15.867Z,76.98
2023-03-20T15:15:54.936Z,76.97
2023-03-20T15:18:25.981Z,73.07
2023-03-20T15:20:54.935Z,72.93
2023-03-20T15:23:22.393Z,72.66
2023-03-20T15:25:51.689Z,72.04
2023-03-20T15:28:21.715Z,73.63
2023-03-20T15:30:51.153Z,73.64
2023-03-20T15:33:27.281Z,74.48
2023-03-20T15:35:56.718Z,74.45
2023-03-20T15:38:29.320Z,72.52
2023-03-20T15:40:57.159Z,72.28
2023-03-20T15:43:27.087Z,73.46
2023-03-20T15:46:14.170Z,73.29
2023-03-20T15:48:48.318Z,72.33
2023-03-20T15:51:18.150Z,71.45
2023-03-20T15:53:48.334Z,70.78
2023-03-20T15:56:19.215Z,72.35
2023-03-20T15:58:49.819Z,74.07
2023-03-20T16:01:19.985Z,74.06
2023-03-20T16:03:48.442Z,72.59
2023-03-20T16:06:21.051Z,74.20
2023-03-20T16:08:58.169Z,73.61
2023-03-20T16:11:25.732Z,75.11
2023-03-20T16:13:55.976Z,72.23
2023-03-20T16:16:25.245Z,71.33
2023-03-20T16:18:52.769Z,70.36
2023-03-20T16:21:25.431Z,71.41
2023-03-20T16:23:55.774Z,72.12
2023-03-20T16:26:25.956Z,72.29
2023-03-20T16:28:56.027Z,71.56
2023-03-20T16:31:28.311Z,73.26
2023-03-20T16:33:59.874Z,72.12
2023-03-20T16:36:30.433Z,70.82
2023-03-20T16:38:59.781Z,70.67
2023-03-20T16:41:31.711Z,71.77
2023-03-20T16:43:59.542Z,70.81
2023-03-20T16:46:29.006Z,70.95
2023-03-20T16:48:58.934Z,72.35
2023-03-20T16:51:28.060Z,73.43
2023-03-20T16:53:59.093Z,72.84
2023-03-20T16:56:29.988Z,74.39
2023-03-20T16:58:57.983Z,72.36
2023-03-20T17:01:29.667Z,71.81
2023-03-20T17:03:59.070Z,70.70
2023-03-20T17:06:35.673Z,71.17
2023-03-20T17:09:18.707Z,71.38
2023-03-20T17:11:50.203Z,71.29
2023-03-20T17:14:18.365Z,72.41
2023-03-20T17:16:45.789Z,70.89
2023-03-20T17:19:16.775Z,71.07
2023-03-20T17:21:44.396Z,71.42
2023-03-20T17:24:14.430Z,71.34
2023-03-20T17:26:44.992Z,71.22
2023-03-20T17:29:13.046Z,70.52
2023-03-20T17:31:40.709Z,70.98
2023-03-20T17:34:08.214Z,70.13
2023-03-20T17:36:36.300Z,70.47
2023-03-20T17:39:04.147Z,72.38
2023-03-20T17:41:32.896Z,73.03
2023-03-20T17:44:00.589Z,71.43
2023-03-20T17:46:30.507Z,71.75
2023-03-20T17:49:00.386Z,71.55
2023-03-20T17:51:27.820Z,72.64
2023-03-20T17:53:57.760Z,71.67
2023-03-20T17:56:29.909Z,71.15
2023-03-20T17:58:58.963Z,72.11
2023-03-20T18:01:27.211Z,72.28
2023-03-20T18:03:55.054Z,73.53
2023-03-20T18:06:27.017Z,71.79
2023-03-20T18:08:55.027Z,72.39
2023-03-20T18:11:22.549Z,73.52
2023-03-20T18:13:50.159Z,80.72
2023-03-20T18:16:21.572Z,75.87
2023-03-20T18:18:49.718Z,76.92
2023-03-20T18:21:17.632Z,76.86
2023-03-20T18:23:45.896Z,74.86
2023-03-20T18:26:22.290Z,70.79
2023-03-20T18:28:51.264Z,71.90
2023-03-20T18:31:20.958Z,72.46
2023-03-20T18:33:49.266Z,73.22
2023-03-20T18:36:18.580Z,74.78
2023-03-20T18:38:46.245Z,74.85
2023-03-20T18:41:14.326Z,73.30
2023-03-20T18:43:42.115Z,72.19
2023-03-20T18:46:14.092Z,71.79
2023-03-20T18:48:43.486Z,73.53
2023-03-20T18:51:10.976Z,71.63
2023-03-20T18:53:40.631Z,72.39
2023-03-20T18:56:12.740Z,71.63
2023-03-20T18:58:40.400Z,72.91
2023-03-20T19:01:08.057Z,73.28
2023-03-20T19:03:39.270Z,73.36
2023-03-20T19:06:13.703Z,71.71
2023-03-20T19:08:41.145Z,73.68
2023-03-20T19:11:14.851Z,72.01
2023-03-20T19:13:44.979Z,74.80
2023-03-20T19:16:21.904Z,72.79
2023-03-20T19:18:51.153Z,72.65
2023-03-20T19:21:25.795Z,73.71
2023-03-20T19:23:53.978Z,71.42
2023-03-20T19:26:25.881Z,72.63
2023-03-20T19:28:54.718Z,71.27
2023-03-20T19:31:22.944Z,71.70
2023-03-20T19:33:50.893Z,71.77
2023-03-20T19:36:27.175Z,71.00
2023-03-20T19:38:55.782Z,72.10
2023-03-20T19:41:23.392Z,72.19
2023-03-20T19:43:55.379Z,70.88
2023-03-20T19:46:41.562Z,69.90
2023-03-20T19:49:18.384Z,71.60
2023-03-20T19:51:48.790Z,72.25
2023-03-20T19:54:16.317Z,71.62
2023-03-20T19:56:43.807Z,71.43
2023-03-20T19:59:11.686Z,70.79
2023-03-20T20:01:39.129Z,71.79
2023-03-20T20:04:06.736Z,71.93
2023-03-20T20:06:34.138Z,70.96
2023-03-20T20:09:03.529Z,71.14
2023-03-20T20:11:30.943Z,70.99
2023-03-20T20:14:08.527Z,71.36
2023-03-20T20:16:37.744Z,70.67
2023-03-20T20:19:05.843Z,70.56
2023-03-20T20:24:22.680Z,70.37
2023-03-20T20:26:55.293Z,70.30
2023-03-20T20:29:28.082Z,73.50
2023-03-20T20:31:55.566Z,70.99
2023-03-20T20:40:00.213Z,69.82
2023-03-20T20:42:27.759Z,69.63
2023-03-20T20:44:55.169Z,71.04
2023-03-20T20:47:22.661Z,68.57
2023-03-20T20:49:50.074Z,67.45
2023-03-20T20:52:17.715Z,68.79
2023-03-20T20:54:45.205Z,68.96
2023-03-20T20:57:14.372Z,67.83
2023-03-20T20:59:42.058Z,68.25
2023-03-20T21:02:11.949Z,67.11
2023-03-20T21:04:40.485Z,67.70
2023-03-20T21:07:10.946Z,67.17
2023-03-20T21:09:38.982Z,66.32
2023-03-20T21:12:08.052Z,66.42
2023-03-20T21:14:37.131Z,66.61
2023-03-20T21:17:05.911Z,67.13
2023-03-20T21:19:35.470Z,67.77
2023-03-20T21:22:02.975Z,65.23
2023-03-20T21:24:33.956Z,66.08
2023-03-20T21:27:02.275Z,65.98
2023-03-20T21:29:29.699Z,65.13
2023-03-20T21:31:58.515Z,65.69
2023-03-20T21:34:26.142Z,65.28
2023-03-20T21:36:53.672Z,65.63
2023-03-20T21:39:21.550Z,66.25
2023-03-20T21:41:49.066Z,66.44
2023-03-20T21:44:24.630Z,67.49
2023-03-20T21:58:56.453Z,65.01
2023-03-20T22:07:32.018Z,65.23
2023-03-20T22:10:10.935Z,65.05
2023-03-20T22:18:31.007Z,65.06
2023-03-20T22:24:21.185Z,65.22
2023-03-20T22:29:48.334Z,63.72
2023-03-20T22:46:05.532Z,65.46
2023-03-20T22:48:36.136Z,64.44
2023-03-20T22:51:03.942Z,64.23
2023-03-20T22:53:33.131Z,64.61
2023-03-20T22:56:01.273Z,65.00
2023-03-20T22:58:28.740Z,64.77
2023-03-20T23:00:56.577Z,64.06
2023-03-20T23:03:42.447Z,65.24
2023-03-20T23:06:15.376Z,64.93
2023-03-20T23:08:50.664Z,64.89
2023-03-20T23:11:20.444Z,64.64
2023-03-20T23:13:47.918Z,65.13
2023-03-20T23:16:15.595Z,66.28
2023-03-20T23:18:43.726Z,66.60
2023-03-20T23:21:11.620Z,66.19
2023-03-20T23:23:39.431Z,66.14
2023-03-20T23:26:10.656Z,65.58
2023-03-20T23:28:39.166Z,64.65
2023-03-20T23:31:10.658Z,64.95
2023-03-20T23:33:38.977Z,65.39
2023-03-20T23:36:16.530Z,66.02
2023-03-20T23:38:52.404Z,66.83
2023-03-20T23:41:36.621Z,66.56
2023-03-20T23:44:08.712Z,67.67
2023-03-20T23:46:36.192Z,67.65
2023-03-20T23:49:03.817Z,68.57
2023-03-20T23:51:31.330Z,69.35
2023-03-20T23:53:58.713Z,68.53
2023-03-20T23:56:27.461Z,69.79
2023-03-20T23:59:01.163Z,70.54
